sensor_id;sensor_type;location;lat;lon;timestamp;pressure;altitude;pressure_sealevel;temperature
66473;BMP280;53291;51.680;8.344;2022-10-18T00:02:12;101759.00;;;17.13
66473;BMP280;53291;51.680;8.344;2022-10-18T00:04:37;101761.72;;;17.12
66473;BMP280;53291;51.680;8.344;2022-10-18T00:07:03;101769.66;;;17.10
66473;BMP280;53291;51.680;8.344;2022-10-18T00:09:28;101776.59;;;17.10
66473;BMP280;53291;51.680;8.344;2022-10-18T00:11:54;101771.44;;;17.10
66473;BMP280;53291;51.680;8.344;2022-10-18T00:14:20;101775.09;;;17.07
66473;BMP280;53291;51.680;8.344;2022-10-18T00:16:46;101770.88;;;17.06
66473;BMP280;53291;51.680;8.344;2022-10-18T00:19:11;101771.03;;;17.05
66473;BMP280;53291;51.680;8.344;2022-10-18T00:21:36;101766.94;;;17.02
66473;BMP280;53291;51.680;8.344;2022-10-18T00:24:02;101772.56;;;16.97
66473;BMP280;53291;51.680;8.344;2022-10-18T00:26:28;101768.88;;;17.00
66473;BMP280;53291;51.680;8.344;2022-10-18T00:28:59;101764.53;;;17.01
66473;BMP280;53291;51.680;8.344;2022-10-18T00:31:36;101762.22;;;16.97
66473;BMP280;53291;51.680;8.344;2022-10-18T00:34:08;101769.34;;;16.95
66473;BMP280;53291;51.680;8.344;2022-10-18T00:36:34;101766.75;;;16.95
66473;BMP280;53291;51.680;8.344;2022-10-18T00:39:00;101766.91;;;16.94
66473;BMP280;53291;51.680;8.344;2022-10-18T00:41:30;101764.19;;;16.95
66473;BMP280;53291;51.680;8.344;2022-10-18T00:46:25;101769.91;;;16.89
66473;BMP280;53291;51.680;8.344;2022-10-18T00:48:52;101767.75;;;16.85
66473;BMP280;53291;51.680;8.344;2022-10-18T00:51:20;101761.75;;;16.84
66473;BMP280;53291;51.680;8.344;2022-10-18T00:53:47;101753.31;;;16.82
66473;BMP280;53291;51.680;8.344;2022-10-18T00:56:12;101760.41;;;16.80
66473;BMP280;53291;51.680;8.344;2022-10-18T00:58:38;101763.28;;;16.77
66473;BMP280;53291;51.680;8.344;2022-10-18T01:01:04;101761.81;;;16.75
66473;BMP280;53291;51.680;8.344;2022-10-18T01:03:29;101755.66;;;16.76
66473;BMP280;53291;51.680;8.344;2022-10-18T01:05:55;101749.03;;;16.73
66473;BMP280;53291;51.680;8.344;2022-10-18T01:08:40;101743.06;;;16.73
66473;BMP280;53291;51.680;8.344;2022-10-18T01:11:33;101748.53;;;16.70
66473;BMP280;53291;51.680;8.344;2022-10-18T01:24:30;101730.88;;;16.56
66473;BMP280;53291;51.680;8.344;2022-10-18T01:32:31;101721.41;;;16.46
66473;BMP280;53291;51.680;8.344;2022-10-18T01:35:02;101723.47;;;16.43
66473;BMP280;53291;51.680;8.344;2022-10-18T01:37:30;101727.81;;;16.42
66473;BMP280;53291;51.680;8.344;2022-10-18T01:39:58;101727.00;;;16.42
66473;BMP280;53291;51.680;8.344;2022-10-18T01:42:24;101726.19;;;16.41
66473;BMP280;53291;51.680;8.344;2022-10-18T01:44:51;101718.31;;;16.43
66473;BMP280;53291;51.680;8.344;2022-10-18T01:47:18;101725.09;;;16.44
66473;BMP280;53291;51.680;8.344;2022-10-18T01:49:44;101728.47;;;16.44
66473;BMP280;53291;51.680;8.344;2022-10-18T01:52:14;101728.34;;;16.46
66473;BMP280;53291;51.680;8.344;2022-10-18T01:54:45;101726.44;;;16.48
66473;BMP280;53291;51.680;8.344;2022-10-18T01:57:21;101728.88;;;16.49
66473;BMP280;53291;51.680;8.344;2022-10-18T01:59:50;101741.78;;;16.49
66473;BMP280;53291;51.680;8.344;2022-10-18T02:05:27;101730.47;;;16.50
66473;BMP280;53291;51.680;8.344;2022-10-18T02:08:06;101729.38;;;16.53
66473;BMP280;53291;51.680;8.344;2022-10-18T02:10:40;101735.22;;;16.55
66473;BMP280;53291;51.680;8.344;2022-10-18T02:13:06;101730.47;;;16.50
66473;BMP280;53291;51.680;8.344;2022-10-18T02:15:34;101722.59;;;16.52
66473;BMP280;53291;51.680;8.344;2022-10-18T02:18:05;101716.78;;;16.50
66473;BMP280;53291;51.680;8.344;2022-10-18T02:20:31;101721.41;;;16.46
66473;BMP280;53291;51.680;8.344;2022-10-18T02:22:58;101725.75;;;16.46
66473;BMP280;53291;51.680;8.344;2022-10-18T02:25:27;101717.88;;;16.47
66473;BMP280;53291;51.680;8.344;2022-10-18T02:27:53;101717.88;;;16.47
66473;BMP280;53291;51.680;8.344;2022-10-18T02:30:23;101712.72;;;16.47
66473;BMP280;53291;51.680;8.344;2022-10-18T02:33:11;101711.06;;;16.46
66473;BMP280;53291;51.680;8.344;2022-10-18T02:35:46;101704.16;;;16.47
66473;BMP280;53291;51.680;8.344;2022-10-18T02:38:14;101705.22;;;16.44
66473;BMP280;53291;51.680;8.344;2022-10-18T02:40:41;101700.75;;;16.46
66473;BMP280;53291;51.680;8.344;2022-10-18T02:43:06;101705.22;;;16.44
66473;BMP280;53291;51.680;8.344;2022-10-18T02:45:32;101700.75;;;16.46
66473;BMP280;53291;51.680;8.344;2022-10-18T02:47:58;101701.69;;;16.45
66473;BMP280;53291;51.680;8.344;2022-10-18T02:50:23;101703.31;;;16.46
66473;BMP280;53291;51.680;8.344;2022-10-18T02:52:48;101707.69;;;16.46
66473;BMP280;53291;51.680;8.344;2022-10-18T02:55:14;101705.38;;;16.43
66473;BMP280;53291;51.680;8.344;2022-10-18T02:57:39;101697.09;;;16.39
66473;BMP280;53291;51.680;8.344;2022-10-18T03:00:05;101706.91;;;16.36
66473;BMP280;53291;51.680;8.344;2022-10-18T03:02:31;101706.91;;;16.36
66473;BMP280;53291;51.680;8.344;2022-10-18T03:04:56;101702.03;;;16.33
66473;BMP280;53291;51.680;8.344;2022-10-18T03:07:22;101705.69;;;16.30
66473;BMP280;53291;51.680;8.344;2022-10-18T03:09:47;101707.44;;;16.30
66473;BMP280;53291;51.680;8.344;2022-10-18T03:12:13;101707.72;;;16.27
66473;BMP280;53291;51.680;8.344;2022-10-18T03:14:38;101710.31;;;16.27
66473;BMP280;53291;51.680;8.344;2022-10-18T03:17:03;101709.53;;;16.26
66473;BMP280;53291;51.680;8.344;2022-10-18T03:19:29;101705.16;;;16.27
66473;BMP280;53291;51.680;8.344;2022-10-18T03:21:54;101705.69;;;16.30
66473;BMP280;53291;51.680;8.344;2022-10-18T03:24:19;101700.50;;;16.30
66473;BMP280;53291;51.680;8.344;2022-10-18T03:26:44;101700.00;;;16.27
66473;BMP280;53291;51.680;8.344;2022-10-18T03:29:10;101707.31;;;16.31
66473;BMP280;53291;51.680;8.344;2022-10-18T03:31:35;101707.19;;;16.33
66473;BMP280;53291;51.680;8.344;2022-10-18T03:34:01;101701.19;;;16.32
66473;BMP280;53291;51.680;8.344;2022-10-18T03:36:26;101704.59;;;16.33
66473;BMP280;53291;51.680;8.344;2022-10-18T03:38:52;101706.38;;;16.32
66473;BMP280;53291;51.680;8.344;2022-10-18T03:41:17;101696.16;;;16.31
66473;BMP280;53291;51.680;8.344;2022-10-18T03:43:42;101698.88;;;16.29
66473;BMP280;53291;51.680;8.344;2022-10-18T03:46:08;101696.28;;;16.29
66473;BMP280;53291;51.680;8.344;2022-10-18T03:48:33;101692.09;;;16.28
66473;BMP280;53291;51.680;8.344;2022-10-18T03:50:59;101695.94;;;16.24
66473;BMP280;53291;51.680;8.344;2022-10-18T03:53:24;101697.41;;;16.27
66473;BMP280;53291;51.680;8.344;2022-10-18T03:55:51;101685.97;;;16.29
66473;BMP280;53291;51.680;8.344;2022-10-18T03:58:16;101685.31;;;16.27
66473;BMP280;53291;51.680;8.344;2022-10-18T04:00:42;101692.41;;;16.25
66473;BMP280;53291;51.680;8.344;2022-10-18T04:03:07;101701.09;;;16.24
66473;BMP280;53291;51.680;8.344;2022-10-18T04:05:32;101702.03;;;16.23
66473;BMP280;53291;51.680;8.344;2022-10-18T04:07:58;101697.69;;;16.24
66473;BMP280;53291;51.680;8.344;2022-10-18T04:10:24;101702.03;;;16.23
66473;BMP280;53291;51.680;8.344;2022-10-18T04:12:50;101696.34;;;16.20
66473;BMP280;53291;51.680;8.344;2022-10-18T04:15:15;101699.75;;;16.20
66473;BMP280;53291;51.680;8.344;2022-10-18T04:17:40;101704.09;;;16.20
66473;BMP280;53291;51.680;8.344;2022-10-18T04:20:06;101699.88;;;16.19
66473;BMP280;53291;51.680;8.344;2022-10-18T04:22:32;101700.56;;;16.21
66473;BMP280;53291;51.680;8.344;2022-10-18T04:24:57;101695.41;;;16.21
66473;BMP280;53291;51.680;8.344;2022-10-18T04:27:22;101696.34;;;16.20
66473;BMP280;53291;51.680;8.344;2022-10-18T04:29:48;101697.28;;;16.19
66473;BMP280;53291;51.680;8.344;2022-10-18T04:32:13;101693.91;;;16.18
66473;BMP280;53291;51.680;8.344;2022-10-18T04:34:38;101700.72;;;16.10
66473;BMP280;53291;51.680;8.344;2022-10-18T04:37:04;101706.31;;;16.05
66473;BMP280;53291;51.680;8.344;2022-10-18T04:39:29;101703.72;;;16.05
66473;BMP280;53291;51.680;8.344;2022-10-18T04:41:55;101708.22;;;16.03
66473;BMP280;53291;51.680;8.344;2022-10-18T04:44:20;101704.00;;;16.02
66473;BMP280;53291;51.680;8.344;2022-10-18T04:46:46;101709.69;;;16.05
66473;BMP280;53291;51.680;8.344;2022-10-18T04:49:11;101711.88;;;16.10
66473;BMP280;53291;51.680;8.344;2022-10-18T04:51:36;101709.00;;;16.13
66473;BMP280;53291;51.680;8.344;2022-10-18T04:54:02;101712.97;;;16.17
66473;BMP280;53291;51.680;8.344;2022-10-18T04:56:27;101714.44;;;16.20
66473;BMP280;53291;51.680;8.344;2022-10-18T04:58:52;101711.84;;;16.20
66473;BMP280;53291;51.680;8.344;2022-10-18T05:01:18;101712.53;;;16.22
66473;BMP280;53291;51.680;8.344;2022-10-18T05:03:43;101714.97;;;16.23
66473;BMP280;53291;51.680;8.344;2022-10-18T05:06:09;101713.06;;;16.25
66473;BMP280;53291;51.680;8.344;2022-10-18T05:08:34;101709.53;;;16.26
66473;BMP280;53291;51.680;8.344;2022-10-18T05:11:01;101710.31;;;16.27
66473;BMP280;53291;51.680;8.344;2022-10-18T05:13:26;101714.69;;;16.26
66473;BMP280;53291;51.680;8.344;2022-10-18T05:15:52;101712.91;;;16.27
66473;BMP280;53291;51.680;8.344;2022-10-18T05:18:17;101709.53;;;16.26
66473;BMP280;53291;51.680;8.344;2022-10-18T05:20:43;101716.31;;;16.27
66473;BMP280;53291;51.680;8.344;2022-10-18T05:23:08;101723.88;;;16.29
66473;BMP280;53291;51.680;8.344;2022-10-18T05:25:40;101723.09;;;16.28
66473;BMP280;53291;51.680;8.344;2022-10-18T05:28:06;101720.34;;;16.30
66473;BMP280;53291;51.680;8.344;2022-10-18T05:30:32;101709.91;;;16.31
66473;BMP280;53291;51.680;8.344;2022-10-18T05:32:58;101716.81;;;16.31
66473;BMP280;53291;51.680;8.344;2022-10-18T05:35:23;101699.03;;;16.28
66473;BMP280;53291;51.680;8.344;2022-10-18T05:37:49;101711.78;;;16.29
66473;BMP280;53291;51.680;8.344;2022-10-18T05:40:14;101700.97;;;16.26
66473;BMP280;53291;51.680;8.344;2022-10-18T05:42:40;101705.31;;;16.25
66473;BMP280;53291;51.680;8.344;2022-10-18T05:45:05;101702.88;;;16.24
66473;BMP280;53291;51.680;8.344;2022-10-18T05:47:31;101708.84;;;16.24
66473;BMP280;53291;51.680;8.344;2022-10-18T05:49:56;101701.09;;;16.24
66473;BMP280;53291;51.680;8.344;2022-10-18T05:52:21;101702.88;;;16.24
66473;BMP280;53291;51.680;8.344;2022-10-18T05:54:47;101711.44;;;16.24
66473;BMP280;53291;51.680;8.344;2022-10-18T05:57:12;101707.22;;;16.23
66473;BMP280;53291;51.680;8.344;2022-10-18T05:59:37;101711.72;;;16.21
66473;BMP280;53291;51.680;8.344;2022-10-18T06:02:03;101721.34;;;16.19
66473;BMP280;53291;51.680;8.344;2022-10-18T06:04:28;101720.28;;;16.22
66473;BMP280;53291;51.680;8.344;2022-10-18T06:06:53;101725.28;;;16.23
66473;BMP280;53291;51.680;8.344;2022-10-18T06:09:20;101726.91;;;16.24
66473;BMP280;53291;51.680;8.344;2022-10-18T06:11:45;101729.38;;;16.26
66473;BMP280;53291;51.680;8.344;2022-10-18T06:14:11;101727.28;;;16.29
66473;BMP280;53291;51.680;8.344;2022-10-18T06:16:36;101724.88;;;16.28
66473;BMP280;53291;51.680;8.344;2022-10-18T06:19:01;101729.88;;;16.29
66473;BMP280;53291;51.680;8.344;2022-10-18T06:21:27;101732.31;;;16.31
66473;BMP280;53291;51.680;8.344;2022-10-18T06:23:54;101730.25;;;16.34
66473;BMP280;53291;51.680;8.344;2022-10-18T06:26:20;101732.72;;;16.36
66473;BMP280;53291;51.680;8.344;2022-10-18T06:28:45;101736.81;;;16.38
66473;BMP280;53291;51.680;8.344;2022-10-18T06:31:11;101735.69;;;16.41
66473;BMP280;53291;51.680;8.344;2022-10-18T06:33:38;101738.03;;;16.44
66473;BMP280;53291;51.680;8.344;2022-10-18T06:36:09;101741.94;;;16.48
66473;BMP280;53291;51.680;8.344;2022-10-18T06:38:35;101748.44;;;16.52
66473;BMP280;53291;51.680;8.344;2022-10-18T06:41:00;101742.19;;;16.55
66473;BMP280;53291;51.680;8.344;2022-10-18T06:43:26;101742.00;;;16.56
66473;BMP280;53291;51.680;8.344;2022-10-18T06:45:52;101734.53;;;16.63
66473;BMP280;53291;51.680;8.344;2022-10-18T06:48:19;101740.09;;;16.68
66473;BMP280;53291;51.680;8.344;2022-10-18T06:53:16;101760.69;;;16.77
66473;BMP280;53291;51.680;8.344;2022-10-18T06:55:42;101753.31;;;16.82
66473;BMP280;53291;51.680;8.344;2022-10-18T06:58:07;101756.31;;;16.87
66473;BMP280;53291;51.680;8.344;2022-10-18T07:00:32;101757.38;;;16.94
66473;BMP280;53291;51.680;8.344;2022-10-18T07:02:58;101762.91;;;17.00
66473;BMP280;53291;51.680;8.344;2022-10-18T07:05:23;101757.00;;;17.07
66473;BMP280;53291;51.680;8.344;2022-10-18T07:07:48;101746.75;;;17.15
66473;BMP280;53291;51.680;8.344;2022-10-18T07:10:13;101768.97;;;17.26
66473;BMP280;53291;51.680;8.344;2022-10-18T07:12:39;101761.47;;;17.32
66473;BMP280;53291;51.680;8.344;2022-10-18T07:15:05;101761.19;;;17.35
66473;BMP280;53291;51.680;8.344;2022-10-18T07:17:30;101765.81;;;17.32
66473;BMP280;53291;51.680;8.344;2022-10-18T07:19:55;101771.88;;;17.40
66473;BMP280;53291;51.680;8.344;2022-10-18T07:22:21;101766.28;;;17.45
66473;BMP280;53291;51.680;8.344;2022-10-18T07:24:46;101772.88;;;17.39
66473;BMP280;53291;51.680;8.344;2022-10-18T07:27:11;101768.66;;;17.38
66473;BMP280;53291;51.680;8.344;2022-10-18T07:29:37;101766.88;;;17.39
66473;BMP280;53291;51.680;8.344;2022-10-18T07:32:03;101779.94;;;17.37
66473;BMP280;53291;51.680;8.344;2022-10-18T07:34:29;101782.66;;;17.36
66473;BMP280;53291;51.680;8.344;2022-10-18T07:36:54;101787.19;;;17.34
66473;BMP280;53291;51.680;8.344;2022-10-18T07:39:20;101789.09;;;17.32
66473;BMP280;53291;51.680;8.344;2022-10-18T07:41:45;101791.84;;;17.30
66473;BMP280;53291;51.680;8.344;2022-10-18T07:44:10;101792.81;;;17.29
66473;BMP280;53291;51.680;8.344;2022-10-18T07:46:36;101794.56;;;17.29
66473;BMP280;53291;51.680;8.344;2022-10-18T07:49:01;101789.25;;;17.30
66473;BMP280;53291;51.680;8.344;2022-10-18T07:51:26;101794.72;;;17.27
66473;BMP280;53291;51.680;8.344;2022-10-18T07:53:52;101799.88;;;17.27
66473;BMP280;53291;51.680;8.344;2022-10-18T07:56:19;101805.06;;;17.27
66473;BMP280;53291;51.680;8.344;2022-10-18T07:58:50;101811.19;;;17.26
66473;BMP280;53291;51.680;8.344;2022-10-18T08:01:17;101805.63;;;17.21
66473;BMP280;53291;51.680;8.344;2022-10-18T08:03:43;101818.56;;;17.21
66473;BMP280;53291;51.680;8.344;2022-10-18T08:06:10;101817.38;;;17.16
66473;BMP280;53291;51.680;8.344;2022-10-18T08:08:37;101819.31;;;17.14
66473;BMP280;53291;51.680;8.344;2022-10-18T08:11:08;101832.69;;;17.09
66473;BMP280;53291;51.680;8.344;2022-10-18T08:13:34;101836.22;;;17.08
66473;BMP280;53291;51.680;8.344;2022-10-18T08:16:07;101830.66;;;17.03
66473;BMP280;53291;51.680;8.344;2022-10-18T08:18:34;101828.75;;;17.05
66473;BMP280;53291;51.680;8.344;2022-10-18T08:21:00;101836.50;;;17.05
66473;BMP280;53291;51.680;8.344;2022-10-18T08:23:26;101843.03;;;17.09
66473;BMP280;53291;51.680;8.344;2022-10-18T08:25:51;101834.84;;;17.14
66473;BMP280;53291;51.680;8.344;2022-10-18T08:28:16;101831.81;;;17.18
66473;BMP280;53291;51.680;8.344;2022-10-18T08:30:42;101832.84;;;17.25
66473;BMP280;53291;51.680;8.344;2022-10-18T08:33:07;101828.59;;;17.34
66473;BMP280;53291;51.680;8.344;2022-10-18T08:35:33;101825.44;;;17.40
66473;BMP280;53291;51.680;8.344;2022-10-18T08:37:58;101827.34;;;17.56
66473;BMP280;53291;51.680;8.344;2022-10-18T08:40:24;101826.66;;;17.71
66473;BMP280;53291;51.680;8.344;2022-10-18T08:45:19;101837.97;;;18.06
66473;BMP280;53291;51.680;8.344;2022-10-18T08:47:45;101837.69;;;18.34
66473;BMP280;53291;51.680;8.344;2022-10-18T08:50:16;101832.47;;;18.60
66473;BMP280;53291;51.680;8.344;2022-10-18T08:52:43;101839.97;;;18.71
66473;BMP280;53291;51.680;8.344;2022-10-18T08:55:17;101841.91;;;18.69
66473;BMP280;53291;51.680;8.344;2022-10-18T08:57:46;101851.53;;;18.77
66473;BMP280;53291;51.680;8.344;2022-10-18T09:00:23;101847.06;;;18.69
66473;BMP280;53291;51.680;8.344;2022-10-18T09:13:52;101865.31;;;18.85
66473;BMP280;53291;51.680;8.344;2022-10-18T09:16:26;101863.53;;;18.78
66473;BMP280;53291;51.680;8.344;2022-10-18T09:19:19;101862.31;;;18.64
66473;BMP280;53291;51.680;8.344;2022-10-18T09:21:52;101866.44;;;18.49
66473;BMP280;53291;51.680;8.344;2022-10-18T09:24:33;101866.22;;;18.43
66473;BMP280;53291;51.680;8.344;2022-10-18T09:27:14;101868.66;;;18.36
66473;BMP280;53291;51.680;8.344;2022-10-18T09:30:00;101877.06;;;18.38
66473;BMP280;53291;51.680;8.344;2022-10-18T09:35:16;101872.28;;;18.51
66473;BMP280;53291;51.680;8.344;2022-10-18T09:37:44;101863.91;;;18.57
66473;BMP280;53291;51.680;8.344;2022-10-18T09:40:24;101870.22;;;18.55
66473;BMP280;53291;51.680;8.344;2022-10-18T09:43:07;101874.13;;;18.67
66473;BMP280;53291;51.680;8.344;2022-10-18T09:45:39;101872.00;;;18.62
66473;BMP280;53291;51.680;8.344;2022-10-18T09:48:21;101876.19;;;18.55
66473;BMP280;53291;51.680;8.344;2022-10-18T09:51:02;101876.00;;;18.49
66473;BMP280;53291;51.680;8.344;2022-10-18T09:56:21;101867.66;;;18.37
66473;BMP280;53291;51.680;8.344;2022-10-18T09:58:49;101870.94;;;18.47
66473;BMP280;53291;51.680;8.344;2022-10-18T10:01:20;101875.59;;;18.61
66473;BMP280;53291;51.680;8.344;2022-10-18T10:03:45;101876.03;;;18.91
66473;BMP280;53291;51.680;8.344;2022-10-18T10:08:40;101864.50;;;19.35
66473;BMP280;53291;51.680;8.344;2022-10-18T10:11:26;101865.16;;;19.29
66473;BMP280;53291;51.680;8.344;2022-10-18T10:13:56;101856.88;;;19.42
66473;BMP280;53291;51.680;8.344;2022-10-18T10:16:22;101863.41;;;19.70
66473;BMP280;53291;51.680;8.344;2022-10-18T10:18:51;101860.69;;;19.71
66473;BMP280;53291;51.680;8.344;2022-10-18T10:21:18;101862.13;;;19.66
66473;BMP280;53291;51.680;8.344;2022-10-18T10:23:51;101874.28;;;19.65
66473;BMP280;53291;51.680;8.344;2022-10-18T10:26:22;101869.06;;;19.57
66473;BMP280;53291;51.680;8.344;2022-10-18T10:28:49;101879.47;;;19.49
66473;BMP280;53291;51.680;8.344;2022-10-18T10:36:22;101872.94;;;19.37
66473;BMP280;53291;51.680;8.344;2022-10-18T10:39:04;101887.41;;;19.40
66473;BMP280;53291;51.680;8.344;2022-10-18T10:41:29;101882.34;;;19.30
66473;BMP280;53291;51.680;8.344;2022-10-18T10:43:55;101877.59;;;19.17
66473;BMP280;53291;51.680;8.344;2022-10-18T10:46:21;101878.06;;;19.05
66473;BMP280;53291;51.680;8.344;2022-10-18T10:48:58;101895.56;;;19.03
66473;BMP280;53291;51.680;8.344;2022-10-18T10:51:34;101900.84;;;18.93
66473;BMP280;53291;51.680;8.344;2022-10-18T10:54:05;101888.34;;;18.88
66473;BMP280;53291;51.680;8.344;2022-10-18T10:59:43;101886.78;;;19.54
66473;BMP280;53291;51.680;8.344;2022-10-18T11:04:46;101888.41;;;19.87
66473;BMP280;53291;51.680;8.344;2022-10-18T11:07:26;101884.53;;;19.67
66473;BMP280;53291;51.680;8.344;2022-10-18T11:10:03;101895.81;;;19.42
66473;BMP280;53291;51.680;8.344;2022-10-18T11:12:45;101903.94;;;19.30
66473;BMP280;53291;51.680;8.344;2022-10-18T11:15:25;101888.81;;;19.18
66473;BMP280;53291;51.680;8.344;2022-10-18T11:20:34;101898.28;;;19.59
66473;BMP280;53291;51.680;8.344;2022-10-18T11:23:05;101891.03;;;19.79
66473;BMP280;53291;51.680;8.344;2022-10-18T11:28:42;101881.91;;;20.15
66473;BMP280;53291;51.680;8.344;2022-10-18T11:43:09;101891.53;;;21.31
66473;BMP280;53291;51.680;8.344;2022-10-18T11:48:39;101884.91;;;21.21
66473;BMP280;53291;51.680;8.344;2022-10-18T11:51:15;101884.03;;;21.06
66473;BMP280;53291;51.680;8.344;2022-10-18T11:53:54;101878.97;;;20.81
66473;BMP280;53291;51.680;8.344;2022-10-18T11:56:41;101876.63;;;20.87
66473;BMP280;53291;51.680;8.344;2022-10-18T12:04:33;101870.88;;;21.53
66473;BMP280;53291;51.680;8.344;2022-10-18T12:06:59;101874.78;;;21.49
66473;BMP280;53291;51.680;8.344;2022-10-18T12:09:31;101870.91;;;21.67
66473;BMP280;53291;51.680;8.344;2022-10-18T12:12:02;101877.41;;;21.49
66473;BMP280;53291;51.680;8.344;2022-10-18T12:14:36;101866.59;;;21.14
66473;BMP280;53291;51.680;8.344;2022-10-18T12:17:13;101875.22;;;20.76
66473;BMP280;53291;51.680;8.344;2022-10-18T12:19:41;101873.66;;;20.67
66473;BMP280;53291;51.680;8.344;2022-10-18T12:22:49;101867.31;;;20.61
66473;BMP280;53291;51.680;8.344;2022-10-18T12:25:14;101867.38;;;20.45
66473;BMP280;53291;51.680;8.344;2022-10-18T12:28:12;101873.06;;;20.41
66473;BMP280;53291;51.680;8.344;2022-10-18T12:31:00;101872.78;;;20.36
66473;BMP280;53291;51.680;8.344;2022-10-18T12:33:32;101864.28;;;20.50
66473;BMP280;53291;51.680;8.344;2022-10-18T12:38:34;101870.38;;;20.26
66473;BMP280;53291;51.680;8.344;2022-10-18T12:41:01;101866.81;;;20.19
66473;BMP280;53291;51.680;8.344;2022-10-18T12:43:28;101861.91;;;20.24
66473;BMP280;53291;51.680;8.344;2022-10-18T12:46:03;101855.44;;;20.12
66473;BMP280;53291;51.680;8.344;2022-10-18T12:48:36;101868.53;;;20.34
66473;BMP280;53291;51.680;8.344;2022-10-18T12:51:21;101869.94;;;20.53
66473;BMP280;53291;51.680;8.344;2022-10-18T12:53:52;101872.69;;;20.60
66473;BMP280;53291;51.680;8.344;2022-10-18T13:09:29;101878.25;;;20.49
66473;BMP280;53291;51.680;8.344;2022-10-18T13:12:37;101871.28;;;20.49
66473;BMP280;53291;51.680;8.344;2022-10-18T13:31:21;101873.00;;;20.02
66473;BMP280;53291;51.680;8.344;2022-10-18T13:33:48;101875.09;;;19.90
66473;BMP280;53291;51.680;8.344;2022-10-18T13:38:47;101874.63;;;19.62
66473;BMP280;53291;51.680;8.344;2022-10-18T13:57:48;101867.94;;;19.60
66473;BMP280;53291;51.680;8.344;2022-10-18T14:11:39;101869.06;;;20.22
66473;BMP280;53291;51.680;8.344;2022-10-18T14:14:13;101874.06;;;20.78
66473;BMP280;53291;51.680;8.344;2022-10-18T14:24:54;101873.84;;;22.46
66473;BMP280;53291;51.680;8.344;2022-10-18T14:29:48;101880.19;;;22.72
66473;BMP280;53291;51.680;8.344;2022-10-18T14:32:34;101873.34;;;22.71
66473;BMP280;53291;51.680;8.344;2022-10-18T14:35:00;101871.69;;;23.00
66473;BMP280;53291;51.680;8.344;2022-10-18T14:37:35;101872.78;;;23.54
66473;BMP280;53291;51.680;8.344;2022-10-18T14:40:04;101875.34;;;24.10
66473;BMP280;53291;51.680;8.344;2022-10-18T14:42:29;101871.91;;;23.75
66473;BMP280;53291;51.680;8.344;2022-10-18T14:44:55;101878.88;;;22.98
66473;BMP280;53291;51.680;8.344;2022-10-18T14:47:27;101885.63;;;22.56
66473;BMP280;53291;51.680;8.344;2022-10-18T14:49:53;101875.94;;;22.21
66473;BMP280;53291;51.680;8.344;2022-10-18T14:52:25;101882.97;;;21.83
66473;BMP280;53291;51.680;8.344;2022-10-18T14:54:54;101884.47;;;21.40
66473;BMP280;53291;51.680;8.344;2022-10-18T14:57:32;101889.53;;;21.11
66473;BMP280;53291;51.680;8.344;2022-10-18T15:00:00;101890.34;;;20.80
66473;BMP280;53291;51.680;8.344;2022-10-18T15:02:34;101885.53;;;20.61
66473;BMP280;53291;51.680;8.344;2022-10-18T15:05:09;101881.69;;;20.33
66473;BMP280;53291;51.680;8.344;2022-10-18T15:07:42;101884.03;;;19.96
66473;BMP280;53291;51.680;8.344;2022-10-18T15:10:17;101884.03;;;19.79
66473;BMP280;53291;51.680;8.344;2022-10-18T15:12:44;101879.66;;;19.80
66473;BMP280;53291;51.680;8.344;2022-10-18T15:15:23;101882.41;;;19.70
66473;BMP280;53291;51.680;8.344;2022-10-18T15:17:51;101887.59;;;19.62
66473;BMP280;53291;51.680;8.344;2022-10-18T15:20:26;101885.16;;;19.53
66473;BMP280;53291;51.680;8.344;2022-10-18T15:23:27;101894.38;;;19.39
66473;BMP280;53291;51.680;8.344;2022-10-18T15:26:02;101885.09;;;19.28
66473;BMP280;53291;51.680;8.344;2022-10-18T15:30:54;101885.69;;;19.14
66473;BMP280;53291;51.680;8.344;2022-10-18T15:33:23;101889.56;;;19.10
66473;BMP280;53291;51.680;8.344;2022-10-18T15:35:51;101884.56;;;19.09
66473;BMP280;53291;51.680;8.344;2022-10-18T15:40:45;101889.00;;;18.91
66473;BMP280;53291;51.680;8.344;2022-10-18T15:45:56;101897.47;;;18.67
66473;BMP280;53291;51.680;8.344;2022-10-18T15:48:40;101887.81;;;18.51
66473;BMP280;53291;51.680;8.344;2022-10-18T15:54:00;101895.28;;;18.28
66473;BMP280;53291;51.680;8.344;2022-10-18T15:56:31;101893.06;;;18.16
66473;BMP280;53291;51.680;8.344;2022-10-18T15:59:05;101895.84;;;18.14
66473;BMP280;53291;51.680;8.344;2022-10-18T16:01:44;101901.47;;;18.10
66473;BMP280;53291;51.680;8.344;2022-10-18T16:04:28;101899.69;;;17.92
66473;BMP280;53291;51.680;8.344;2022-10-18T16:06:54;101893.09;;;17.80
66473;BMP280;53291;51.680;8.344;2022-10-18T16:09:21;101903.22;;;17.74
66473;BMP280;53291;51.680;8.344;2022-10-18T16:11:47;101898.56;;;17.60
66473;BMP280;53291;51.680;8.344;2022-10-18T16:14:16;101902.16;;;17.49
66473;BMP280;53291;51.680;8.344;2022-10-18T16:16:41;101897.50;;;17.35
66473;BMP280;53291;51.680;8.344;2022-10-18T16:19:09;101901.19;;;17.23
66473;BMP280;53291;51.680;8.344;2022-10-18T16:21:37;101903.16;;;17.11
66473;BMP280;53291;51.680;8.344;2022-10-18T16:24:04;101907.69;;;17.00
66473;BMP280;53291;51.680;8.344;2022-10-18T16:26:30;101914.81;;;16.88
66473;BMP280;53291;51.680;8.344;2022-10-18T16:28:56;101920.00;;;16.78
66473;BMP280;53291;51.680;8.344;2022-10-18T16:31:24;101912.28;;;16.69
66473;BMP280;53291;51.680;8.344;2022-10-18T16:33:51;101921.81;;;16.59
66473;BMP280;53291;51.680;8.344;2022-10-18T16:36:19;101913.13;;;16.50
66473;BMP280;53291;51.680;8.344;2022-10-18T16:38:45;101916.66;;;16.39
66473;BMP280;53291;51.680;8.344;2022-10-18T16:41:11;101922.09;;;16.27
66473;BMP280;53291;51.680;8.344;2022-10-18T16:43:43;101924.00;;;16.15
66473;BMP280;53291;51.680;8.344;2022-10-18T16:46:13;101930.25;;;16.03
66473;BMP280;53291;51.680;8.344;2022-10-18T16:48:40;101936.59;;;15.89
66473;BMP280;53291;51.680;8.344;2022-10-18T16:51:05;101939.31;;;15.78
66473;BMP280;53291;51.680;8.344;2022-10-18T16:53:30;101947.28;;;15.75